Pleasant View, Illinois
Current Conditions -  °F | °C
As of 7:15 PM on Monday 26 Jan 2015 (Local Time) from KMQB Reporting Station
Haze Haze  
Wind Chill: 32°   Ceiling: 4100
Heat Index: 32°   Visibility: 5mi
Dew Point: 32°   Wind: 0mph
Humidity: 99%   Direction: NA
Pressure: 29.89"   Gusts: NA
Location:  40.1451°N, 90.5648°W
Report Text: KMQB 270115Z AUTO 00000KT 5SM BR SCT029 BKN041 OVC065 00/00 A2989 RMK AO2 T00010000
Loading
Personal Weather Stations






























Interactive Weather Map New forecast layout! Learn more

10-Day Weather Forecast

Advertisements
Track Severe Weather on mobile